createdAt,value
2018-01-10T00:00:06.740Z,9.77
2018-01-10T00:02:34.770Z,10.30
2018-01-10T00:05:06.098Z,10.00
2018-01-10T00:07:34.119Z,10.50
2018-01-10T00:10:08.660Z,9.93
2018-01-10T00:12:36.675Z,10.57
2018-01-10T00:15:06.528Z,10.40
2018-01-10T00:17:34.698Z,9.90
2018-01-10T00:20:09.321Z,9.73
2018-01-10T00:22:37.955Z,9.97
2018-01-10T00:25:06.707Z,10.23
2018-01-10T00:27:34.757Z,9.90
2018-01-10T00:30:06.200Z,10.40
2018-01-10T00:32:34.232Z,10.10
2018-01-10T00:35:08.632Z,9.90
2018-01-10T00:37:36.693Z,10.47
2018-01-10T00:40:07.842Z,10.07
2018-01-10T00:42:35.871Z,9.77
2018-01-10T00:45:07.416Z,9.80
2018-01-10T00:47:35.448Z,10.60
2018-01-10T00:50:06.620Z,9.53
2018-01-10T00:52:34.664Z,10.43
2018-01-10T00:55:09.283Z,9.00
2018-01-10T00:57:37.357Z,9.80
2018-01-10T01:00:07.212Z,10.33
2018-01-10T01:02:35.236Z,9.40
2018-01-10T01:05:06.314Z,9.57
2018-01-10T01:07:34.279Z,9.30
2018-01-10T01:10:08.749Z,9.50
2018-01-10T01:12:36.768Z,9.00
2018-01-10T01:15:06.984Z,10.03
2018-01-10T01:17:34.985Z,8.87
2018-01-10T01:20:09.970Z,8.77
2018-01-10T01:22:38.260Z,9.63
2018-01-10T01:25:07.184Z,9.27
2018-01-10T01:27:35.230Z,9.43
2018-01-10T01:30:10.022Z,8.80
2018-01-10T01:32:38.040Z,9.17
2018-01-10T01:35:07.776Z,8.83
2018-01-10T01:37:35.800Z,9.63
2018-01-10T01:40:06.731Z,9.13
2018-01-10T01:42:34.752Z,9.80
2018-01-10T01:45:05.964Z,8.83
2018-01-10T01:47:33.972Z,8.70
2018-01-10T01:50:05.045Z,8.13
2018-01-10T01:52:33.052Z,8.37
2018-01-10T01:55:01.052Z,8.87
2018-01-10T01:57:31.965Z,8.50
2018-01-10T01:59:59.971Z,8.77
2018-01-10T02:02:28.204Z,8.67
2018-01-10T02:04:56.210Z,8.63
2018-01-10T02:07:24.260Z,8.40
2018-01-10T02:09:52.285Z,8.77
2018-01-10T02:12:20.317Z,8.30
2018-01-10T02:14:48.364Z,8.00
2018-01-10T02:17:16.390Z,17.63
2018-01-10T02:19:44.418Z,14.70
2018-01-10T02:22:12.431Z,8.40
2018-01-10T02:24:40.464Z,7.30
2018-01-10T02:27:08.466Z,7.30
2018-01-10T02:29:36.498Z,7.53
2018-01-10T02:32:05.044Z,6.87
2018-01-10T02:34:33.064Z,6.90
2018-01-10T02:37:01.080Z,7.00
2018-01-10T02:39:29.068Z,7.17
2018-01-10T02:41:57.105Z,6.27
2018-01-10T02:44:25.101Z,6.60
2018-01-10T02:46:53.126Z,6.43
2018-01-10T02:49:21.131Z,6.07
2018-01-10T02:51:50.116Z,6.23
2018-01-10T02:54:18.112Z,6.17
2018-01-10T02:56:46.132Z,5.87
2018-01-10T02:59:14.141Z,6.03
2018-01-10T03:01:42.441Z,5.87
2018-01-10T03:04:10.468Z,5.93
2018-01-10T03:06:38.477Z,5.87
2018-01-10T03:09:06.604Z,5.80
2018-01-10T03:11:34.608Z,5.47
2018-01-10T03:14:02.864Z,6.37
2018-01-10T03:16:31.165Z,6.00
2018-01-10T03:18:59.189Z,5.60
2018-01-10T03:21:27.185Z,5.70
2018-01-10T03:23:55.409Z,6.70
2018-01-10T03:26:23.400Z,6.07
2018-01-10T03:28:51.416Z,6.53
2018-01-10T03:31:19.407Z,6.67
2018-01-10T03:33:47.434Z,7.00
2018-01-10T03:36:15.414Z,6.83
2018-01-10T03:38:44.129Z,7.03
2018-01-10T03:41:12.126Z,7.37
2018-01-10T03:43:40.151Z,7.97
2018-01-10T03:46:08.371Z,7.20
2018-01-10T03:48:36.601Z,7.90
2018-01-10T03:51:04.737Z,7.93
2018-01-10T03:53:33.115Z,8.17
2018-01-10T03:56:01.113Z,8.10
2018-01-10T03:58:29.138Z,8.43
2018-01-10T04:00:57.140Z,8.33
2018-01-10T04:03:25.184Z,8.30
2018-01-10T04:05:53.390Z,8.37
2018-01-10T04:08:21.412Z,7.80
2018-01-10T04:10:49.429Z,7.60
2018-01-10T04:13:17.430Z,7.33
2018-01-10T04:15:45.437Z,6.90
2018-01-10T04:18:13.438Z,7.40
2018-01-10T04:20:41.459Z,7.70
2018-01-10T04:23:09.660Z,7.50
2018-01-10T04:25:37.692Z,8.03
2018-01-10T04:28:05.739Z,8.83
2018-01-10T04:30:33.776Z,8.67
2018-01-10T04:33:02.598Z,7.70
2018-01-10T04:35:30.739Z,8.40
2018-01-10T04:37:58.740Z,8.07
2018-01-10T04:40:26.785Z,8.40
2018-01-10T04:42:54.780Z,22.87
2018-01-10T04:45:22.820Z,8.23
2018-01-10T04:47:51.092Z,7.97
2018-01-10T04:50:19.104Z,8.23
2018-01-10T04:52:47.121Z,7.57
2018-01-10T04:55:15.130Z,8.10
2018-01-10T04:57:43.157Z,7.87
2018-01-10T05:00:11.152Z,8.17
2018-01-10T05:02:39.170Z,7.53
2018-01-10T05:05:07.168Z,8.20
2018-01-10T05:07:35.214Z,6.87
2018-01-10T05:10:05.904Z,6.87
2018-01-10T05:12:33.932Z,6.90
2018-01-10T05:15:06.360Z,6.83
2018-01-10T05:17:34.737Z,6.60
2018-01-10T05:20:06.694Z,6.83
2018-01-10T05:22:34.719Z,6.90
2018-01-10T05:25:06.522Z,6.43
2018-01-10T05:27:34.679Z,6.40
2018-01-10T05:30:05.741Z,6.87
2018-01-10T05:32:33.768Z,6.53
2018-01-10T05:35:08.261Z,6.10
2018-01-10T05:37:36.615Z,6.33
2018-01-10T05:40:07.668Z,6.03
2018-01-10T05:42:35.797Z,5.60
2018-01-10T05:45:07.253Z,6.00
2018-01-10T05:47:35.545Z,5.33
2018-01-10T05:50:07.534Z,5.70
2018-01-10T05:52:35.586Z,5.23
2018-01-10T05:55:06.703Z,6.30
2018-01-10T05:57:34.899Z,5.60
2018-01-10T06:00:06.144Z,6.00
2018-01-10T06:02:34.215Z,5.97
2018-01-10T06:05:08.928Z,6.03
2018-01-10T06:07:36.959Z,5.80
2018-01-10T06:10:07.943Z,6.00
2018-01-10T06:12:35.940Z,6.63
2018-01-10T06:15:06.433Z,6.40
2018-01-10T06:17:34.674Z,6.50
2018-01-10T06:20:09.549Z,6.43
2018-01-10T06:22:37.748Z,6.40
2018-01-10T06:25:06.405Z,6.80
2018-01-10T06:27:34.416Z,6.17
2018-01-10T06:30:09.060Z,7.37
2018-01-10T06:32:37.283Z,6.70
2018-01-10T06:35:06.160Z,6.53
2018-01-10T06:37:34.176Z,6.23
2018-01-10T06:40:08.913Z,6.93
2018-01-10T06:42:36.921Z,6.20
2018-01-10T06:45:06.432Z,7.23
2018-01-10T06:47:34.685Z,7.03
2018-01-10T06:50:05.795Z,6.90
2018-01-10T06:52:33.812Z,6.97
2018-01-10T06:55:08.402Z,6.67
2018-01-10T06:57:36.419Z,6.20
2018-01-10T07:00:06.178Z,6.63
2018-01-10T07:02:34.488Z,6.20
2018-01-10T07:05:07.883Z,5.57
2018-01-10T07:07:35.910Z,6.10
2018-01-10T07:10:07.789Z,5.70
2018-01-10T07:12:35.814Z,5.80
2018-01-10T07:15:07.660Z,5.40
2018-01-10T07:17:36.179Z,5.03
2018-01-10T07:20:07.351Z,4.73
2018-01-10T07:22:35.352Z,5.20
2018-01-10T07:25:06.013Z,4.70
2018-01-10T07:27:34.569Z,4.37
2018-01-10T07:30:06.181Z,4.23
2018-01-10T07:32:34.251Z,4.07
2018-01-10T07:35:09.001Z,4.27
2018-01-10T07:37:37.945Z,3.87
2018-01-10T07:40:06.270Z,3.90
2018-01-10T07:42:34.265Z,3.77
2018-01-10T07:45:05.448Z,3.50
2018-01-10T07:47:33.469Z,3.50
2018-01-10T07:50:04.766Z,3.40
2018-01-10T07:52:32.784Z,3.23
2018-01-10T07:55:05.523Z,3.83
2018-01-10T07:57:33.522Z,3.50
2018-01-10T08:00:04.915Z,3.40
2018-01-10T08:02:32.964Z,3.47
2018-01-10T08:05:05.740Z,3.70
2018-01-10T08:07:33.724Z,4.17
2018-01-10T08:10:04.900Z,3.60
2018-01-10T08:12:33.089Z,3.37
2018-01-10T08:17:35.830Z,3.00
2018-01-10T08:20:06.074Z,3.13
2018-01-10T08:22:34.112Z,2.93
2018-01-10T08:25:09.206Z,3.20
2018-01-10T08:27:37.199Z,2.80
2018-01-10T08:30:06.292Z,2.70
2018-01-10T08:32:34.344Z,3.40
2018-01-10T08:35:08.997Z,3.90
2018-01-10T08:37:37.213Z,3.03
2018-01-10T08:40:07.034Z,3.00
2018-01-10T08:42:35.024Z,3.03
2018-01-10T08:45:06.120Z,2.97
2018-01-10T08:47:34.100Z,2.70
2018-01-10T08:50:08.775Z,3.40
2018-01-10T08:52:37.037Z,3.20
2018-01-10T08:55:06.389Z,3.00
2018-01-10T08:57:34.406Z,2.97
2018-01-10T09:00:09.163Z,3.07
2018-01-10T09:02:37.335Z,3.27
2018-01-10T09:05:07.294Z,3.63
2018-01-10T09:07:35.304Z,3.43
2018-01-10T09:10:03.363Z,3.20
2018-01-10T09:12:31.956Z,3.07
2018-01-10T09:15:00.259Z,3.10
2018-01-10T09:17:28.245Z,2.70
2018-01-10T09:19:56.238Z,2.67
2018-01-10T09:22:24.261Z,2.80
2018-01-10T09:24:54.436Z,2.80
2018-01-10T09:27:22.469Z,2.77
2018-01-10T09:29:55.424Z,2.50
2018-01-10T09:32:23.468Z,2.50
2018-01-10T09:34:55.092Z,2.87
2018-01-10T09:37:23.092Z,2.53
2018-01-10T09:39:54.600Z,2.60
2018-01-10T09:42:22.617Z,2.80
2018-01-10T09:44:53.705Z,3.03
2018-01-10T09:47:21.730Z,3.20
2018-01-10T09:49:56.079Z,3.13
2018-01-10T09:52:24.398Z,2.83
2018-01-10T09:54:55.337Z,2.60
2018-01-10T09:57:23.445Z,2.70
2018-01-10T09:59:55.010Z,2.87
2018-01-10T10:02:23.183Z,2.80
2018-01-10T10:04:53.683Z,2.93
2018-01-10T10:07:21.727Z,2.93
2018-01-10T10:09:55.211Z,3.97
2018-01-10T10:12:23.278Z,2.90
2018-01-10T10:14:54.926Z,2.80
2018-01-10T10:17:22.944Z,3.10
2018-01-10T10:19:53.725Z,2.40
2018-01-10T10:22:21.754Z,2.70
2018-01-10T10:24:56.128Z,2.43
2018-01-10T10:27:24.282Z,2.87
2018-01-10T10:29:54.344Z,2.53
2018-01-10T10:32:22.508Z,2.77
2018-01-10T10:34:54.565Z,2.80
2018-01-10T10:37:22.561Z,2.77
2018-01-10T10:39:54.092Z,2.83
2018-01-10T10:42:22.093Z,2.90
2018-01-10T10:44:53.794Z,3.13
2018-01-10T10:47:21.848Z,3.10
2018-01-10T10:49:53.086Z,3.03
2018-01-10T10:52:21.116Z,3.47
2018-01-10T10:57:22.066Z,3.00
2018-01-10T10:59:54.032Z,3.00
2018-01-10T11:02:22.047Z,2.80
2018-01-10T11:04:56.820Z,2.90
2018-01-10T11:07:24.820Z,3.20
2018-01-10T11:09:53.968Z,3.17
2018-01-10T11:12:21.991Z,3.47
2018-01-10T11:14:56.867Z,3.40
2018-01-10T11:17:24.885Z,3.47
2018-01-10T11:19:54.112Z,3.40
2018-01-10T11:22:22.321Z,3.30
2018-01-10T11:24:53.724Z,3.73
2018-01-10T11:27:22.028Z,3.67
2018-01-10T11:29:56.670Z,3.40
2018-01-10T11:32:24.879Z,3.60
2018-01-10T11:34:54.141Z,3.37
2018-01-10T11:37:22.146Z,4.00
2018-01-10T11:39:53.720Z,3.60
2018-01-10T11:42:21.732Z,3.60
2018-01-10T11:44:56.245Z,3.10
2018-01-10T11:47:24.264Z,3.43
2018-01-10T11:49:57.046Z,3.33
2018-01-10T11:52:25.082Z,3.40
2018-01-10T11:54:54.193Z,3.30
2018-01-10T11:57:22.185Z,3.90
2018-01-10T11:59:56.802Z,3.10
2018-01-10T12:02:24.811Z,3.67
2018-01-10T12:04:54.629Z,3.43
2018-01-10T12:07:22.910Z,3.63
2018-01-10T12:09:54.041Z,3.60
2018-01-10T12:12:22.085Z,3.53
2018-01-10T12:14:53.146Z,3.60
2018-01-10T12:17:21.436Z,3.43
2018-01-10T12:19:56.540Z,3.80
2018-01-10T12:22:24.549Z,3.43
2018-01-10T12:24:54.052Z,3.33
2018-01-10T12:27:22.077Z,3.33
2018-01-10T12:29:53.180Z,3.20
2018-01-10T12:32:21.237Z,3.33
2018-01-10T12:34:53.397Z,3.43
2018-01-10T12:37:21.445Z,3.33
2018-01-10T12:39:55.920Z,3.30
2018-01-10T12:42:23.951Z,2.90
2018-01-10T12:44:55.701Z,3.53
2018-01-10T12:47:23.995Z,3.27
2018-01-10T12:49:54.143Z,3.27
2018-01-10T12:52:22.369Z,3.33
2018-01-10T12:54:53.629Z,3.10
2018-01-10T12:57:21.860Z,3.43
2018-01-10T12:59:53.056Z,3.23
2018-01-10T13:02:21.085Z,3.03
2018-01-10T13:04:52.434Z,3.40
2018-01-10T13:07:20.425Z,3.27
2018-01-10T13:09:53.390Z,3.00
2018-01-10T13:12:21.405Z,3.10
2018-01-10T13:14:55.748Z,3.10
2018-01-10T13:17:24.313Z,2.80
2018-01-10T13:19:55.686Z,3.03
2018-01-10T13:22:23.717Z,3.70
2018-01-10T13:24:54.950Z,3.10
2018-01-10T13:27:22.973Z,3.27
2018-01-10T13:29:57.060Z,3.00
2018-01-10T13:32:25.399Z,3.30
2018-01-10T13:34:54.525Z,3.50
2018-01-10T13:37:22.672Z,3.20
2018-01-10T13:39:56.466Z,3.23
2018-01-10T13:42:24.440Z,3.20
2018-01-10T13:44:53.983Z,3.27
2018-01-10T13:47:21.986Z,3.30
2018-01-10T13:49:56.681Z,3.10
2018-01-10T13:52:24.756Z,3.17
2018-01-10T13:54:55.761Z,2.67
2018-01-10T13:57:24.056Z,3.30
2018-01-10T13:59:53.808Z,3.10
2018-01-10T14:02:21.964Z,3.33
2018-01-10T14:04:54.837Z,3.27
2018-01-10T14:07:22.877Z,2.87
2018-01-10T14:09:53.764Z,3.00
2018-01-10T14:12:22.192Z,3.30
2018-01-10T14:14:53.156Z,3.27
2018-01-10T14:17:21.209Z,3.50
2018-01-10T14:19:52.489Z,3.00
2018-01-10T14:22:20.509Z,3.03
2018-01-10T14:24:53.539Z,3.03
2018-01-10T14:27:21.526Z,2.90
2018-01-10T14:29:52.546Z,3.03
2018-01-10T14:32:20.892Z,3.07
2018-01-10T14:34:52.185Z,2.80
2018-01-10T14:37:20.211Z,3.20
2018-01-10T14:39:48.214Z,3.50
2018-01-10T14:42:19.623Z,2.70
2018-01-10T14:44:47.629Z,3.10
2018-01-10T14:47:15.630Z,3.00
2018-01-10T14:49:43.815Z,3.03
2018-01-10T14:52:11.790Z,3.17
2018-01-10T14:54:40.324Z,3.10
2018-01-10T14:57:08.376Z,3.20
2018-01-10T14:59:36.400Z,3.07
2018-01-10T15:02:04.428Z,3.10
2018-01-10T15:04:32.656Z,3.20
2018-01-10T15:07:00.686Z,3.37
2018-01-10T15:09:28.721Z,3.37
2018-01-10T15:11:57.096Z,3.20
2018-01-10T15:14:25.468Z,3.10
2018-01-10T15:16:53.480Z,3.80
2018-01-10T15:19:21.492Z,3.37
2018-01-10T15:21:49.513Z,3.40
2018-01-10T15:24:17.541Z,3.17
2018-01-10T15:26:45.540Z,3.50
2018-01-10T15:29:13.566Z,3.30
2018-01-10T15:31:41.600Z,3.37
2018-01-10T15:34:09.636Z,4.40
2018-01-10T15:36:38.434Z,3.70
2018-01-10T15:39:07.046Z,4.17
2018-01-10T15:41:35.084Z,3.50
2018-01-10T15:44:03.106Z,3.40
2018-01-10T15:46:31.121Z,4.20
2018-01-10T15:48:59.981Z,4.03
2018-01-10T15:51:28.370Z,3.90
2018-01-10T15:53:56.651Z,3.37
2018-01-10T15:56:24.691Z,3.43
2018-01-10T15:58:52.691Z,3.83
2018-01-10T16:01:20.720Z,3.50
2018-01-10T16:03:48.964Z,3.70
2018-01-10T16:06:17.233Z,4.50
2018-01-10T16:08:45.221Z,3.57
2018-01-10T16:11:13.360Z,4.10
2018-01-10T16:13:41.410Z,3.60
2018-01-10T16:16:13.213Z,3.40
2018-01-10T16:18:41.247Z,3.37
2018-01-10T16:21:09.245Z,3.27
2018-01-10T16:23:37.291Z,3.40
2018-01-10T16:26:05.309Z,3.30
2018-01-10T16:28:33.312Z,3.97
2018-01-10T16:31:01.319Z,3.33
2018-01-10T16:33:29.356Z,3.57
2018-01-10T16:35:57.366Z,3.43
2018-01-10T16:38:25.713Z,3.53
2018-01-10T16:40:53.741Z,3.63
2018-01-10T16:43:21.851Z,4.60
2018-01-10T16:45:49.865Z,3.87
2018-01-10T16:48:17.914Z,3.37
2018-01-10T16:50:45.913Z,3.60
2018-01-10T16:53:14.458Z,3.90
2018-01-10T16:55:42.508Z,3.80
2018-01-10T16:58:10.946Z,3.20
2018-01-10T17:00:38.951Z,3.80
2018-01-10T17:03:06.976Z,3.83
2018-01-10T17:05:35.649Z,3.90
2018-01-10T17:08:03.802Z,3.80
2018-01-10T17:10:31.868Z,3.90
2018-01-10T17:12:59.877Z,3.50
2018-01-10T17:15:27.880Z,3.20
2018-01-10T17:17:55.975Z,3.90
2018-01-10T17:20:23.980Z,3.70
2018-01-10T17:22:52.258Z,4.17
2018-01-10T17:25:20.264Z,4.37
2018-01-10T17:27:48.294Z,4.47
2018-01-10T17:30:16.303Z,4.00
2018-01-10T17:32:44.376Z,4.03
2018-01-10T17:35:12.381Z,3.93
2018-01-10T17:37:40.399Z,4.27
2018-01-10T17:40:08.407Z,4.00
2018-01-10T17:42:36.452Z,4.60
2018-01-10T17:45:04.540Z,4.40
2018-01-10T17:47:32.551Z,4.60
2018-01-10T17:50:00.577Z,4.60
2018-01-10T17:52:28.577Z,5.20
2018-01-10T17:54:56.604Z,4.90
2018-01-10T17:57:24.964Z,4.80
2018-01-10T17:59:54.868Z,4.90
2018-01-10T18:02:22.860Z,4.60
2018-01-10T18:04:54.000Z,4.67
2018-01-10T18:07:22.003Z,4.70
2018-01-10T18:09:55.048Z,5.80
2018-01-10T18:12:23.055Z,6.10
2018-01-10T18:14:54.702Z,5.10
2018-01-10T18:17:22.712Z,5.33
2018-01-10T18:19:54.065Z,4.60
2018-01-10T18:22:22.320Z,5.27
2018-01-10T18:24:55.103Z,5.47
2018-01-10T18:27:23.104Z,6.10
2018-01-10T18:29:53.825Z,8.47
2018-01-10T18:32:21.851Z,6.17
2018-01-10T18:34:57.004Z,6.57
2018-01-10T18:37:25.281Z,5.97
2018-01-10T18:39:54.032Z,5.93
2018-01-10T18:42:22.141Z,5.47
2018-01-10T18:44:56.962Z,6.20
2018-01-10T18:47:25.379Z,6.03
2018-01-10T18:49:54.640Z,5.53
2018-01-10T18:52:22.645Z,5.43
2018-01-10T18:54:56.381Z,5.43
2018-01-10T18:57:24.901Z,5.67
2018-01-10T18:59:54.109Z,5.73
2018-01-10T19:02:22.128Z,5.37
2018-01-10T19:04:56.944Z,6.07
2018-01-10T19:07:24.970Z,6.03
2018-01-10T19:09:54.937Z,6.20
2018-01-10T19:12:22.988Z,5.83
2018-01-10T19:14:54.844Z,6.03
2018-01-10T19:17:22.850Z,5.60
2018-01-10T19:19:53.858Z,4.90
2018-01-10T19:22:21.856Z,5.23
2018-01-10T19:24:53.204Z,5.27
2018-01-10T19:27:21.216Z,5.23
2018-01-10T19:29:52.854Z,5.90
2018-01-10T19:32:20.827Z,4.90
2018-01-10T19:37:21.499Z,6.20
2018-01-10T19:39:52.617Z,5.13
2018-01-10T19:42:20.802Z,4.80
2018-01-10T19:47:21.932Z,5.00
2018-01-10T19:49:53.781Z,4.73
2018-01-10T19:52:21.812Z,4.53
2018-01-10T19:54:56.414Z,4.80
2018-01-10T19:57:24.438Z,5.77
2018-01-10T19:59:54.227Z,4.77
2018-01-10T20:02:22.220Z,4.80
2018-01-10T20:04:53.221Z,5.70
2018-01-10T20:07:21.283Z,13.83
2018-01-10T20:09:52.592Z,4.50
2018-01-10T20:12:20.629Z,8.07
2018-01-10T20:14:50.064Z,5.30
2018-01-10T20:17:20.157Z,4.17
2018-01-10T20:19:48.174Z,6.17
2018-01-10T20:22:19.186Z,4.43
2018-01-10T20:24:47.216Z,4.20
2018-01-10T20:27:18.121Z,4.33
2018-01-10T20:29:46.157Z,4.40
2018-01-10T20:32:14.161Z,5.03
2018-01-10T20:34:42.206Z,9.33
2018-01-10T20:37:10.430Z,4.77
2018-01-10T20:39:38.450Z,4.30
2018-01-10T20:42:06.488Z,4.30
2018-01-10T20:44:34.485Z,4.53
2018-01-10T20:47:02.528Z,4.40
2018-01-10T20:49:30.589Z,4.60
2018-01-10T20:51:58.616Z,4.17
2018-01-10T20:54:26.640Z,4.40
2018-01-10T20:56:54.683Z,4.53
2018-01-10T20:59:22.698Z,4.70
2018-01-10T21:01:50.756Z,4.80
2018-01-10T21:04:18.776Z,4.77
2018-01-10T21:06:47.404Z,4.43
2018-01-10T21:09:15.431Z,4.83
2018-01-10T21:11:43.460Z,4.50
2018-01-10T21:14:11.686Z,5.03
2018-01-10T21:16:39.687Z,5.27
2018-01-10T21:19:07.714Z,5.10
2018-01-10T21:21:35.729Z,6.67
2018-01-10T21:24:03.752Z,6.20
2018-01-10T21:26:31.802Z,6.17
2018-01-10T21:28:59.820Z,6.20
2018-01-10T21:31:27.835Z,6.20
2018-01-10T21:33:55.869Z,6.93
2018-01-10T21:36:24.401Z,6.67
2018-01-10T21:38:52.743Z,7.37
2018-01-10T21:41:20.750Z,7.40
2018-01-10T21:43:49.236Z,7.80
2018-01-10T21:46:17.233Z,8.87
2018-01-10T21:48:45.250Z,7.30
2018-01-10T21:51:13.341Z,6.97
2018-01-10T21:53:41.349Z,7.13
2018-01-10T21:56:09.727Z,7.40
2018-01-10T21:58:37.740Z,6.67
2018-01-10T22:01:05.760Z,6.47
2018-01-10T22:03:33.805Z,7.70
2018-01-10T22:06:01.792Z,8.47
2018-01-10T22:08:29.804Z,8.43
2018-01-10T22:10:57.846Z,8.90
2018-01-10T22:13:26.120Z,9.03
2018-01-10T22:15:54.178Z,9.23
2018-01-10T22:18:22.209Z,9.10
2018-01-10T22:20:50.254Z,10.47
2018-01-10T22:23:18.314Z,11.37
2018-01-10T22:25:46.655Z,8.93
2018-01-10T22:28:15.062Z,9.13
2018-01-10T22:30:43.077Z,8.60
2018-01-10T22:33:11.128Z,7.77
2018-01-10T22:35:39.467Z,8.70
2018-01-10T22:38:07.490Z,8.43
2018-01-10T22:40:35.522Z,8.47
2018-01-10T22:43:03.538Z,8.97
2018-01-10T22:45:31.555Z,9.23
2018-01-10T22:47:59.566Z,9.67
2018-01-10T22:50:27.585Z,8.97
2018-01-10T22:52:55.588Z,8.00
2018-01-10T22:55:23.613Z,7.97
2018-01-10T22:57:51.637Z,8.10
2018-01-10T23:00:26.617Z,8.07
2018-01-10T23:02:54.621Z,8.20
2018-01-10T23:05:22.633Z,7.53
2018-01-10T23:07:50.636Z,7.00
2018-01-10T23:10:19.013Z,7.30
2018-01-10T23:12:47.025Z,7.13
2018-01-10T23:15:15.063Z,7.47
2018-01-10T23:17:43.353Z,6.73
2018-01-10T23:20:11.375Z,8.23
2018-01-10T23:22:39.373Z,7.40
2018-01-10T23:25:07.397Z,7.53
2018-01-10T23:27:35.411Z,7.30
2018-01-10T23:30:03.458Z,6.50
2018-01-10T23:32:31.476Z,6.53
2018-01-10T23:34:59.468Z,7.20
2018-01-10T23:37:27.484Z,6.50
2018-01-10T23:39:55.492Z,7.17
2018-01-10T23:42:23.517Z,7.30
2018-01-10T23:44:54.441Z,6.47
2018-01-10T23:47:22.473Z,6.97
2018-01-10T23:49:53.707Z,6.30
2018-01-10T23:52:21.704Z,6.47
2018-01-10T23:54:53.606Z,7.97
2018-01-10T23:57:21.600Z,6.57
2018-01-10T23:59:56.410Z,6.83
